sensor_id;sensor_type;location;lat;lon;timestamp;temperature;humidity
11140;DHT22;5624;49.388;11.350;2023-04-24T00:02:23;9.30;99.90
11140;DHT22;5624;49.388;11.350;2023-04-24T00:04:49;9.20;99.90
11140;DHT22;5624;49.388;11.350;2023-04-24T00:07:15;9.20;99.90
11140;DHT22;5624;49.388;11.350;2023-04-24T00:09:42;9.20;99.90
11140;DHT22;5624;49.388;11.350;2023-04-24T00:12:09;9.20;99.90
11140;DHT22;5624;49.388;11.350;2023-04-24T00:14:35;9.20;99.90
11140;DHT22;5624;49.388;11.350;2023-04-24T00:17:01;9.20;99.90
11140;DHT22;5624;49.388;11.350;2023-04-24T00:19:28;9.10;99.90
11140;DHT22;5624;49.388;11.350;2023-04-24T00:21:54;9.10;99.90
11140;DHT22;5624;49.388;11.350;2023-04-24T00:24:20;9.10;99.90
11140;DHT22;5624;49.388;11.350;2023-04-24T00:26:45;9.10;99.90
11140;DHT22;5624;49.388;11.350;2023-04-24T00:29:11;9.10;99.90
11140;DHT22;5624;49.388;11.350;2023-04-24T00:31:37;9.10;99.90
11140;DHT22;5624;49.388;11.350;2023-04-24T00:34:03;9.10;99.90
11140;DHT22;5624;49.388;11.350;2023-04-24T00:36:29;9.10;99.90
11140;DHT22;5624;49.388;11.350;2023-04-24T00:38:56;9.00;99.90
11140;DHT22;5624;49.388;11.350;2023-04-24T00:41:22;9.00;99.90
11140;DHT22;5624;49.388;11.350;2023-04-24T00:43:49;9.00;99.90
11140;DHT22;5624;49.388;11.350;2023-04-24T00:46:16;9.00;99.90
11140;DHT22;5624;49.388;11.350;2023-04-24T00:48:42;9.00;99.90
11140;DHT22;5624;49.388;11.350;2023-04-24T00:51:08;9.00;99.90
11140;DHT22;5624;49.388;11.350;2023-04-24T00:53:33;9.00;99.90
11140;DHT22;5624;49.388;11.350;2023-04-24T00:56:00;8.90;99.90
11140;DHT22;5624;49.388;11.350;2023-04-24T00:58:26;9.00;99.90
11140;DHT22;5624;49.388;11.350;2023-04-24T01:00:53;9.00;99.90
11140;DHT22;5624;49.388;11.350;2023-04-24T01:03:24;9.00;99.90
11140;DHT22;5624;49.388;11.350;2023-04-24T01:05:52;8.90;99.90
11140;DHT22;5624;49.388;11.350;2023-04-24T01:08:19;9.00;99.90
11140;DHT22;5624;49.388;11.350;2023-04-24T01:10:46;9.00;99.90
11140;DHT22;5624;49.388;11.350;2023-04-24T01:13:13;9.00;99.90
11140;DHT22;5624;49.388;11.350;2023-04-24T01:15:39;9.00;99.90
11140;DHT22;5624;49.388;11.350;2023-04-24T01:18:04;9.00;99.90
11140;DHT22;5624;49.388;11.350;2023-04-24T01:20:30;9.00;99.90
11140;DHT22;5624;49.388;11.350;2023-04-24T01:22:57;8.90;99.90
11140;DHT22;5624;49.388;11.350;2023-04-24T01:25:24;8.90;99.90
11140;DHT22;5624;49.388;11.350;2023-04-24T01:27:51;8.90;99.90
11140;DHT22;5624;49.388;11.350;2023-04-24T01:30:17;8.80;99.90
11140;DHT22;5624;49.388;11.350;2023-04-24T01:32:43;8.80;99.90
11140;DHT22;5624;49.388;11.350;2023-04-24T01:35:10;8.70;99.90
11140;DHT22;5624;49.388;11.350;2023-04-24T01:37:36;8.70;99.90
11140;DHT22;5624;49.388;11.350;2023-04-24T01:40:06;8.70;99.90
11140;DHT22;5624;49.388;11.350;2023-04-24T01:42:32;8.70;99.90
11140;DHT22;5624;49.388;11.350;2023-04-24T01:44:59;8.60;99.90
11140;DHT22;5624;49.388;11.350;2023-04-24T01:47:25;8.60;99.90
11140;DHT22;5624;49.388;11.350;2023-04-24T01:49:51;8.60;99.90
11140;DHT22;5624;49.388;11.350;2023-04-24T01:52:17;8.60;99.90
11140;DHT22;5624;49.388;11.350;2023-04-24T01:54:44;8.60;99.90
11140;DHT22;5624;49.388;11.350;2023-04-24T01:57:09;8.60;99.90
11140;DHT22;5624;49.388;11.350;2023-04-24T01:59:35;8.60;99.90
11140;DHT22;5624;49.388;11.350;2023-04-24T02:02:02;8.70;99.90
11140;DHT22;5624;49.388;11.350;2023-04-24T02:04:28;8.60;99.90
11140;DHT22;5624;49.388;11.350;2023-04-24T02:06:54;8.60;99.90
11140;DHT22;5624;49.388;11.350;2023-04-24T02:09:19;8.70;99.90
11140;DHT22;5624;49.388;11.350;2023-04-24T02:11:45;8.70;99.90
11140;DHT22;5624;49.388;11.350;2023-04-24T02:14:11;8.70;99.90
11140;DHT22;5624;49.388;11.350;2023-04-24T02:16:36;8.80;99.90
11140;DHT22;5624;49.388;11.350;2023-04-24T02:19:03;8.70;99.90
11140;DHT22;5624;49.388;11.350;2023-04-24T02:21:28;8.80;99.90
11140;DHT22;5624;49.388;11.350;2023-04-24T02:23:56;8.80;99.90
11140;DHT22;5624;49.388;11.350;2023-04-24T02:26:22;8.80;99.90
11140;DHT22;5624;49.388;11.350;2023-04-24T02:28:47;8.70;99.90
11140;DHT22;5624;49.388;11.350;2023-04-24T02:31:13;8.70;99.90
11140;DHT22;5624;49.388;11.350;2023-04-24T02:33:38;8.70;99.90
11140;DHT22;5624;49.388;11.350;2023-04-24T02:36:04;8.70;99.90
11140;DHT22;5624;49.388;11.350;2023-04-24T02:38:30;8.70;99.90
11140;DHT22;5624;49.388;11.350;2023-04-24T02:40:55;8.70;99.90
11140;DHT22;5624;49.388;11.350;2023-04-24T02:43:21;8.70;99.90
11140;DHT22;5624;49.388;11.350;2023-04-24T02:45:46;8.60;99.90
11140;DHT22;5624;49.388;11.350;2023-04-24T02:48:12;8.70;99.90
11140;DHT22;5624;49.388;11.350;2023-04-24T02:50:38;8.70;99.90
11140;DHT22;5624;49.388;11.350;2023-04-24T02:53:03;8.60;99.90
11140;DHT22;5624;49.388;11.350;2023-04-24T02:55:29;8.50;99.90
11140;DHT22;5624;49.388;11.350;2023-04-24T02:57:55;8.50;99.90
11140;DHT22;5624;49.388;11.350;2023-04-24T03:00:21;8.50;99.90
11140;DHT22;5624;49.388;11.350;2023-04-24T03:02:47;8.50;99.90
11140;DHT22;5624;49.388;11.350;2023-04-24T03:05:13;8.40;99.90
11140;DHT22;5624;49.388;11.350;2023-04-24T03:07:38;8.40;99.90
11140;DHT22;5624;49.388;11.350;2023-04-24T03:10:05;8.40;99.90
11140;DHT22;5624;49.388;11.350;2023-04-24T03:12:31;8.40;99.90
11140;DHT22;5624;49.388;11.350;2023-04-24T03:14:57;8.50;99.90
11140;DHT22;5624;49.388;11.350;2023-04-24T03:17:22;8.40;99.90
11140;DHT22;5624;49.388;11.350;2023-04-24T03:19:48;8.40;99.90
11140;DHT22;5624;49.388;11.350;2023-04-24T03:22:13;8.40;99.90
11140;DHT22;5624;49.388;11.350;2023-04-24T03:24:39;8.50;99.90
11140;DHT22;5624;49.388;11.350;2023-04-24T03:27:05;8.50;99.90
11140;DHT22;5624;49.388;11.350;2023-04-24T03:29:31;8.50;99.90
11140;DHT22;5624;49.388;11.350;2023-04-24T03:31:56;8.60;99.90
11140;DHT22;5624;49.388;11.350;2023-04-24T03:34:22;8.60;99.90
11140;DHT22;5624;49.388;11.350;2023-04-24T03:36:47;8.60;99.90
11140;DHT22;5624;49.388;11.350;2023-04-24T03:39:13;8.60;99.90
11140;DHT22;5624;49.388;11.350;2023-04-24T03:41:39;8.70;99.90
11140;DHT22;5624;49.388;11.350;2023-04-24T03:44:05;8.60;99.90
11140;DHT22;5624;49.388;11.350;2023-04-24T03:46:31;8.60;99.90
11140;DHT22;5624;49.388;11.350;2023-04-24T03:48:56;8.60;99.90
11140;DHT22;5624;49.388;11.350;2023-04-24T03:51:22;8.60;99.90
11140;DHT22;5624;49.388;11.350;2023-04-24T03:53:48;8.60;99.90
11140;DHT22;5624;49.388;11.350;2023-04-24T03:56:14;8.60;99.90
11140;DHT22;5624;49.388;11.350;2023-04-24T03:58:40;8.60;99.90
11140;DHT22;5624;49.388;11.350;2023-04-24T04:01:05;8.60;99.90
11140;DHT22;5624;49.388;11.350;2023-04-24T04:03:31;8.60;99.90
11140;DHT22;5624;49.388;11.350;2023-04-24T04:05:57;8.60;99.90
11140;DHT22;5624;49.388;11.350;2023-04-24T04:08:22;8.50;99.90
11140;DHT22;5624;49.388;11.350;2023-04-24T04:10:48;8.50;99.90
11140;DHT22;5624;49.388;11.350;2023-04-24T04:13:14;8.60;99.90
11140;DHT22;5624;49.388;11.350;2023-04-24T04:15:40;8.50;99.90
11140;DHT22;5624;49.388;11.350;2023-04-24T04:18:05;8.60;99.90
11140;DHT22;5624;49.388;11.350;2023-04-24T04:20:31;8.50;99.90
11140;DHT22;5624;49.388;11.350;2023-04-24T04:22:57;8.50;99.90
11140;DHT22;5624;49.388;11.350;2023-04-24T04:25:22;8.50;99.90
11140;DHT22;5624;49.388;11.350;2023-04-24T04:27:48;8.50;99.90
11140;DHT22;5624;49.388;11.350;2023-04-24T04:30:14;8.50;99.90
11140;DHT22;5624;49.388;11.350;2023-04-24T04:32:40;8.50;99.90
11140;DHT22;5624;49.388;11.350;2023-04-24T04:35:06;8.50;99.90
11140;DHT22;5624;49.388;11.350;2023-04-24T04:37:34;8.50;99.90
11140;DHT22;5624;49.388;11.350;2023-04-24T04:40:01;8.50;99.90
11140;DHT22;5624;49.388;11.350;2023-04-24T04:42:31;8.60;99.90
11140;DHT22;5624;49.388;11.350;2023-04-24T04:44:58;8.60;99.90
11140;DHT22;5624;49.388;11.350;2023-04-24T04:47:23;8.60;99.90
11140;DHT22;5624;49.388;11.350;2023-04-24T04:49:49;8.60;99.90
11140;DHT22;5624;49.388;11.350;2023-04-24T04:52:17;8.70;99.90
11140;DHT22;5624;49.388;11.350;2023-04-24T04:54:43;8.80;99.90
11140;DHT22;5624;49.388;11.350;2023-04-24T04:57:08;8.90;99.90
11140;DHT22;5624;49.388;11.350;2023-04-24T04:59:34;8.90;99.90
11140;DHT22;5624;49.388;11.350;2023-04-24T05:02:00;9.00;99.90
11140;DHT22;5624;49.388;11.350;2023-04-24T05:04:26;9.10;99.90
11140;DHT22;5624;49.388;11.350;2023-04-24T05:06:52;9.20;99.90
11140;DHT22;5624;49.388;11.350;2023-04-24T05:09:18;9.30;99.90
11140;DHT22;5624;49.388;11.350;2023-04-24T05:11:43;9.50;99.90
11140;DHT22;5624;49.388;11.350;2023-04-24T05:14:09;9.60;99.90
11140;DHT22;5624;49.388;11.350;2023-04-24T05:16:35;9.70;99.80
11140;DHT22;5624;49.388;11.350;2023-04-24T05:19:02;9.70;99.00
11140;DHT22;5624;49.388;11.350;2023-04-24T05:21:28;9.80;98.40
11140;DHT22;5624;49.388;11.350;2023-04-24T05:23:53;9.70;97.60
11140;DHT22;5624;49.388;11.350;2023-04-24T05:26:19;9.80;97.60
11140;DHT22;5624;49.388;11.350;2023-04-24T05:28:44;9.80;98.00
11140;DHT22;5624;49.388;11.350;2023-04-24T05:31:10;9.90;97.60
11140;DHT22;5624;49.388;11.350;2023-04-24T05:33:37;9.80;97.20
11140;DHT22;5624;49.388;11.350;2023-04-24T05:36:03;9.90;97.20
11140;DHT22;5624;49.388;11.350;2023-04-24T05:38:29;9.90;96.50
11140;DHT22;5624;49.388;11.350;2023-04-24T05:40:55;10.00;97.10
11140;DHT22;5624;49.388;11.350;2023-04-24T05:43:20;10.00;96.10
11140;DHT22;5624;49.388;11.350;2023-04-24T05:45:46;10.10;96.10
11140;DHT22;5624;49.388;11.350;2023-04-24T05:48:11;10.10;95.90
11140;DHT22;5624;49.388;11.350;2023-04-24T05:50:37;10.20;95.30
11140;DHT22;5624;49.388;11.350;2023-04-24T05:53:03;10.20;95.20
11140;DHT22;5624;49.388;11.350;2023-04-24T05:55:31;10.20;94.40
11140;DHT22;5624;49.388;11.350;2023-04-24T05:57:56;10.10;94.90
11140;DHT22;5624;49.388;11.350;2023-04-24T06:00:23;10.20;94.60
11140;DHT22;5624;49.388;11.350;2023-04-24T06:02:49;10.10;94.90
11140;DHT22;5624;49.388;11.350;2023-04-24T06:05:14;10.10;95.50
11140;DHT22;5624;49.388;11.350;2023-04-24T06:07:40;10.10;96.00
11140;DHT22;5624;49.388;11.350;2023-04-24T06:10:06;10.10;95.40
11140;DHT22;5624;49.388;11.350;2023-04-24T06:12:32;10.20;95.30
11140;DHT22;5624;49.388;11.350;2023-04-24T06:14:57;10.20;96.10
11140;DHT22;5624;49.388;11.350;2023-04-24T06:17:23;10.30;95.50
11140;DHT22;5624;49.388;11.350;2023-04-24T06:19:48;10.40;96.10
11140;DHT22;5624;49.388;11.350;2023-04-24T06:22:14;10.60;95.40
11140;DHT22;5624;49.388;11.350;2023-04-24T06:24:40;10.70;94.60
11140;DHT22;5624;49.388;11.350;2023-04-24T06:27:06;10.70;94.30
11140;DHT22;5624;49.388;11.350;2023-04-24T06:29:33;10.70;93.60
11140;DHT22;5624;49.388;11.350;2023-04-24T06:31:59;10.80;94.50
11140;DHT22;5624;49.388;11.350;2023-04-24T06:34:24;11.00;93.80
11140;DHT22;5624;49.388;11.350;2023-04-24T06:36:50;11.10;92.30
11140;DHT22;5624;49.388;11.350;2023-04-24T06:39:16;11.30;91.10
11140;DHT22;5624;49.388;11.350;2023-04-24T06:41:41;11.60;90.00
11140;DHT22;5624;49.388;11.350;2023-04-24T06:44:07;11.60;88.90
11140;DHT22;5624;49.388;11.350;2023-04-24T06:46:32;11.60;89.70
11140;DHT22;5624;49.388;11.350;2023-04-24T06:48:58;11.70;89.50
11140;DHT22;5624;49.388;11.350;2023-04-24T06:51:24;11.70;87.30
11140;DHT22;5624;49.388;11.350;2023-04-24T06:53:52;11.80;88.10
11140;DHT22;5624;49.388;11.350;2023-04-24T06:56:18;11.70;87.10
11140;DHT22;5624;49.388;11.350;2023-04-24T06:58:44;11.70;86.90
11140;DHT22;5624;49.388;11.350;2023-04-24T07:01:10;11.30;87.10
11140;DHT22;5624;49.388;11.350;2023-04-24T07:03:36;11.40;87.50
11140;DHT22;5624;49.388;11.350;2023-04-24T07:06:02;11.10;87.90
11140;DHT22;5624;49.388;11.350;2023-04-24T07:08:29;11.00;88.10
11140;DHT22;5624;49.388;11.350;2023-04-24T07:10:56;11.00;88.60
11140;DHT22;5624;49.388;11.350;2023-04-24T07:13:22;11.10;88.70
11140;DHT22;5624;49.388;11.350;2023-04-24T07:15:48;11.20;86.50
11140;DHT22;5624;49.388;11.350;2023-04-24T07:18:16;11.30;86.90
11140;DHT22;5624;49.388;11.350;2023-04-24T07:20:42;11.30;86.90
11140;DHT22;5624;49.388;11.350;2023-04-24T07:23:07;11.30;87.00
11140;DHT22;5624;49.388;11.350;2023-04-24T07:25:33;11.20;86.30
11140;DHT22;5624;49.388;11.350;2023-04-24T07:27:59;11.20;86.00
11140;DHT22;5624;49.388;11.350;2023-04-24T07:30:25;11.20;87.00
11140;DHT22;5624;49.388;11.350;2023-04-24T07:32:51;11.30;86.20
11140;DHT22;5624;49.388;11.350;2023-04-24T07:35:16;11.40;84.10
11140;DHT22;5624;49.388;11.350;2023-04-24T07:37:42;11.40;83.40
11140;DHT22;5624;49.388;11.350;2023-04-24T07:40:12;11.40;83.20
11140;DHT22;5624;49.388;11.350;2023-04-24T07:42:38;11.40;82.60
11140;DHT22;5624;49.388;11.350;2023-04-24T07:45:04;11.60;83.40
11140;DHT22;5624;49.388;11.350;2023-04-24T07:47:29;11.60;81.10
11140;DHT22;5624;49.388;11.350;2023-04-24T07:49:55;11.50;78.90
11140;DHT22;5624;49.388;11.350;2023-04-24T07:52:21;11.40;78.60
11140;DHT22;5624;49.388;11.350;2023-04-24T07:54:47;11.60;78.60
11140;DHT22;5624;49.388;11.350;2023-04-24T07:57:12;11.70;77.50
11140;DHT22;5624;49.388;11.350;2023-04-24T07:59:39;11.80;76.00
11140;DHT22;5624;49.388;11.350;2023-04-24T08:02:04;11.70;76.60
11140;DHT22;5624;49.388;11.350;2023-04-24T08:04:31;11.50;75.30
11140;DHT22;5624;49.388;11.350;2023-04-24T08:06:57;11.50;75.90
11140;DHT22;5624;49.388;11.350;2023-04-24T08:09:23;11.70;76.40
11140;DHT22;5624;49.388;11.350;2023-04-24T08:11:48;11.80;74.10
11140;DHT22;5624;49.388;11.350;2023-04-24T08:14:14;12.10;71.00
11140;DHT22;5624;49.388;11.350;2023-04-24T08:16:40;12.50;69.40
11140;DHT22;5624;49.388;11.350;2023-04-24T08:19:06;13.00;69.10
11140;DHT22;5624;49.388;11.350;2023-04-24T08:21:32;13.30;68.90
11140;DHT22;5624;49.388;11.350;2023-04-24T08:23:58;13.40;67.80
11140;DHT22;5624;49.388;11.350;2023-04-24T08:26:23;13.50;66.20
11140;DHT22;5624;49.388;11.350;2023-04-24T08:28:49;13.60;64.00
11140;DHT22;5624;49.388;11.350;2023-04-24T08:31:14;13.30;63.20
11140;DHT22;5624;49.388;11.350;2023-04-24T08:33:40;12.90;65.60
11140;DHT22;5624;49.388;11.350;2023-04-24T08:36:07;13.00;66.20
11140;DHT22;5624;49.388;11.350;2023-04-24T08:38:33;13.30;65.10
11140;DHT22;5624;49.388;11.350;2023-04-24T08:41:00;13.40;64.00
11140;DHT22;5624;49.388;11.350;2023-04-24T08:43:26;13.20;63.00
11140;DHT22;5624;49.388;11.350;2023-04-24T08:45:55;13.10;64.10
11140;DHT22;5624;49.388;11.350;2023-04-24T08:48:22;13.00;63.70
11140;DHT22;5624;49.388;11.350;2023-04-24T08:50:49;12.80;64.80
11140;DHT22;5624;49.388;11.350;2023-04-24T08:53:15;12.50;64.60
11140;DHT22;5624;49.388;11.350;2023-04-24T08:55:41;12.20;65.80
11140;DHT22;5624;49.388;11.350;2023-04-24T08:58:08;12.20;68.10
11140;DHT22;5624;49.388;11.350;2023-04-24T09:00:34;12.50;66.40
11140;DHT22;5624;49.388;11.350;2023-04-24T09:03:00;13.20;64.90
11140;DHT22;5624;49.388;11.350;2023-04-24T09:05:28;13.90;64.90
11140;DHT22;5624;49.388;11.350;2023-04-24T09:07:55;14.30;59.80
11140;DHT22;5624;49.388;11.350;2023-04-24T09:10:22;15.00;58.90
11140;DHT22;5624;49.388;11.350;2023-04-24T09:12:50;15.70;54.60
11140;DHT22;5624;49.388;11.350;2023-04-24T09:15:16;16.60;56.70
11140;DHT22;5624;49.388;11.350;2023-04-24T09:17:43;16.90;51.90
11140;DHT22;5624;49.388;11.350;2023-04-24T09:20:08;16.90;50.00
11140;DHT22;5624;49.388;11.350;2023-04-24T09:22:34;16.10;52.60
11140;DHT22;5624;49.388;11.350;2023-04-24T09:25:04;15.30;53.30
11140;DHT22;5624;49.388;11.350;2023-04-24T09:27:31;14.90;54.40
11140;DHT22;5624;49.388;11.350;2023-04-24T09:29:57;15.10;55.60
11140;DHT22;5624;49.388;11.350;2023-04-24T09:32:24;14.80;54.40
11140;DHT22;5624;49.388;11.350;2023-04-24T09:35:09;14.80;53.80
11140;DHT22;5624;49.388;11.350;2023-04-24T09:37:40;14.80;56.50
11140;DHT22;5624;49.388;11.350;2023-04-24T09:40:17;14.80;54.30
11140;DHT22;5624;49.388;11.350;2023-04-24T09:42:54;14.40;56.00
11140;DHT22;5624;49.388;11.350;2023-04-24T09:45:20;14.60;56.00
11140;DHT22;5624;49.388;11.350;2023-04-24T09:47:51;14.70;55.80
11140;DHT22;5624;49.388;11.350;2023-04-24T09:50:18;14.30;55.20
11140;DHT22;5624;49.388;11.350;2023-04-24T09:52:45;14.30;55.90
11140;DHT22;5624;49.388;11.350;2023-04-24T09:55:16;14.20;55.40
11140;DHT22;5624;49.388;11.350;2023-04-24T09:57:53;14.20;56.60
11140;DHT22;5624;49.388;11.350;2023-04-24T10:00:26;14.20;56.90
11140;DHT22;5624;49.388;11.350;2023-04-24T10:03:02;14.00;56.60
11140;DHT22;5624;49.388;11.350;2023-04-24T10:05:30;14.00;58.40
11140;DHT22;5624;49.388;11.350;2023-04-24T10:07:57;14.10;58.50
11140;DHT22;5624;49.388;11.350;2023-04-24T10:10:23;15.10;54.70
11140;DHT22;5624;49.388;11.350;2023-04-24T10:12:51;14.90;54.60
11140;DHT22;5624;49.388;11.350;2023-04-24T10:15:17;14.60;54.60
11140;DHT22;5624;49.388;11.350;2023-04-24T10:17:48;14.50;55.80
11140;DHT22;5624;49.388;11.350;2023-04-24T10:20:28;14.20;56.40
11140;DHT22;5624;49.388;11.350;2023-04-24T10:22:57;13.80;56.20
11140;DHT22;5624;49.388;11.350;2023-04-24T10:25:28;13.30;57.70
11140;DHT22;5624;49.388;11.350;2023-04-24T10:27:54;12.90;58.90
11140;DHT22;5624;49.388;11.350;2023-04-24T10:30:26;12.60;60.80
11140;DHT22;5624;49.388;11.350;2023-04-24T10:32:52;12.30;60.40
11140;DHT22;5624;49.388;11.350;2023-04-24T10:35:18;12.30;60.40
11140;DHT22;5624;49.388;11.350;2023-04-24T10:37:54;12.80;61.20
11140;DHT22;5624;49.388;11.350;2023-04-24T10:40:31;13.20;58.80
11140;DHT22;5624;49.388;11.350;2023-04-24T10:42:57;13.50;58.90
11140;DHT22;5624;49.388;11.350;2023-04-24T10:45:23;13.60;57.40
11140;DHT22;5624;49.388;11.350;2023-04-24T10:48:02;13.40;56.70
11140;DHT22;5624;49.388;11.350;2023-04-24T10:50:30;13.40;56.60
11140;DHT22;5624;49.388;11.350;2023-04-24T10:53:11;13.60;54.80
11140;DHT22;5624;49.388;11.350;2023-04-24T10:58:09;13.90;54.20
11140;DHT22;5624;49.388;11.350;2023-04-24T11:00:40;14.70;54.80
11140;DHT22;5624;49.388;11.350;2023-04-24T11:03:12;15.40;53.00
11140;DHT22;5624;49.388;11.350;2023-04-24T11:08:26;16.20;48.30
11140;DHT22;5624;49.388;11.350;2023-04-24T11:11:08;16.60;46.20
11140;DHT22;5624;49.388;11.350;2023-04-24T11:19:05;17.40;42.40
11140;DHT22;5624;49.388;11.350;2023-04-24T11:24:26;15.70;45.50
11140;DHT22;5624;49.388;11.350;2023-04-24T11:27:04;14.50;50.40
11140;DHT22;5624;49.388;11.350;2023-04-24T11:29:49;13.80;52.70
11140;DHT22;5624;49.388;11.350;2023-04-24T11:32:29;13.70;55.20
11140;DHT22;5624;49.388;11.350;2023-04-24T11:35:06;13.70;55.20
11140;DHT22;5624;49.388;11.350;2023-04-24T11:40:01;13.10;54.00
11140;DHT22;5624;49.388;11.350;2023-04-24T11:42:27;12.90;55.00
11140;DHT22;5624;49.388;11.350;2023-04-24T11:44:54;12.90;54.70
11140;DHT22;5624;49.388;11.350;2023-04-24T11:47:30;12.80;54.60
11140;DHT22;5624;49.388;11.350;2023-04-24T11:49:57;12.90;54.30
11140;DHT22;5624;49.388;11.350;2023-04-24T11:52:23;13.30;53.00
11140;DHT22;5624;49.388;11.350;2023-04-24T11:54:49;13.60;52.90
11140;DHT22;5624;49.388;11.350;2023-04-24T11:57:21;14.00;53.10
11140;DHT22;5624;49.388;11.350;2023-04-24T11:59:48;14.60;49.60
11140;DHT22;5624;49.388;11.350;2023-04-24T12:02:24;15.10;48.70
11140;DHT22;5624;49.388;11.350;2023-04-24T12:04:54;15.60;47.70
11140;DHT22;5624;49.388;11.350;2023-04-24T12:07:20;14.90;46.00
11140;DHT22;5624;49.388;11.350;2023-04-24T12:09:49;14.60;48.00
11140;DHT22;5624;49.388;11.350;2023-04-24T12:12:17;14.10;46.50
11140;DHT22;5624;49.388;11.350;2023-04-24T12:14:50;13.70;50.00
11140;DHT22;5624;49.388;11.350;2023-04-24T12:17:17;13.50;49.40
11140;DHT22;5624;49.388;11.350;2023-04-24T12:19:47;13.00;49.50
11140;DHT22;5624;49.388;11.350;2023-04-24T12:22:13;12.60;52.50
11140;DHT22;5624;49.388;11.350;2023-04-24T12:24:59;12.30;53.80
11140;DHT22;5624;49.388;11.350;2023-04-24T12:27:25;12.00;54.40
11140;DHT22;5624;49.388;11.350;2023-04-24T12:29:58;11.80;55.20
11140;DHT22;5624;49.388;11.350;2023-04-24T12:32:24;11.60;53.70
11140;DHT22;5624;49.388;11.350;2023-04-24T12:34:51;11.70;53.80
11140;DHT22;5624;49.388;11.350;2023-04-24T12:37:17;12.00;53.70
11140;DHT22;5624;49.388;11.350;2023-04-24T12:40:04;12.20;52.70
11140;DHT22;5624;49.388;11.350;2023-04-24T12:42:31;12.40;51.10
11140;DHT22;5624;49.388;11.350;2023-04-24T12:45:03;12.60;52.60
11140;DHT22;5624;49.388;11.350;2023-04-24T12:47:30;12.70;52.30
11140;DHT22;5624;49.388;11.350;2023-04-24T12:49:56;12.70;52.00
11140;DHT22;5624;49.388;11.350;2023-04-24T12:52:23;12.80;52.80
11140;DHT22;5624;49.388;11.350;2023-04-24T12:54:56;12.80;52.80
11140;DHT22;5624;49.388;11.350;2023-04-24T12:57:23;12.80;52.40
11140;DHT22;5624;49.388;11.350;2023-04-24T12:59:48;12.80;54.70
11140;DHT22;5624;49.388;11.350;2023-04-24T13:02:14;12.70;52.70
11140;DHT22;5624;49.388;11.350;2023-04-24T13:04:44;12.70;52.60
11140;DHT22;5624;49.388;11.350;2023-04-24T13:07:11;12.90;52.00
11140;DHT22;5624;49.388;11.350;2023-04-24T13:09:36;13.10;53.50
11140;DHT22;5624;49.388;11.350;2023-04-24T13:12:02;13.20;49.50
11140;DHT22;5624;49.388;11.350;2023-04-24T13:14:28;13.20;50.60
11140;DHT22;5624;49.388;11.350;2023-04-24T13:16:53;13.40;50.30
11140;DHT22;5624;49.388;11.350;2023-04-24T13:19:19;13.40;50.40
11140;DHT22;5624;49.388;11.350;2023-04-24T13:21:44;13.50;50.80
11140;DHT22;5624;49.388;11.350;2023-04-24T13:24:10;13.90;50.20
11140;DHT22;5624;49.388;11.350;2023-04-24T13:26:36;14.10;50.10
11140;DHT22;5624;49.388;11.350;2023-04-24T13:29:02;14.10;48.70
11140;DHT22;5624;49.388;11.350;2023-04-24T13:31:29;14.30;49.10
11140;DHT22;5624;49.388;11.350;2023-04-24T13:33:54;14.60;49.40
11140;DHT22;5624;49.388;11.350;2023-04-24T13:36:20;14.80;46.60
11140;DHT22;5624;49.388;11.350;2023-04-24T13:38:46;14.80;47.40
11140;DHT22;5624;49.388;11.350;2023-04-24T13:41:11;14.70;47.20
11140;DHT22;5624;49.388;11.350;2023-04-24T13:43:37;14.70;47.10
11140;DHT22;5624;49.388;11.350;2023-04-24T13:46:02;14.50;47.80
11140;DHT22;5624;49.388;11.350;2023-04-24T13:48:29;14.00;49.60
11140;DHT22;5624;49.388;11.350;2023-04-24T13:50:54;13.70;49.30
11140;DHT22;5624;49.388;11.350;2023-04-24T13:53:20;13.40;50.40
11140;DHT22;5624;49.388;11.350;2023-04-24T13:55:46;12.70;51.80
11140;DHT22;5624;49.388;11.350;2023-04-24T13:58:11;12.50;53.10
11140;DHT22;5624;49.388;11.350;2023-04-24T14:00:37;12.10;54.80
11140;DHT22;5624;49.388;11.350;2023-04-24T14:03:03;12.00;55.20
11140;DHT22;5624;49.388;11.350;2023-04-24T14:05:28;11.80;56.20
11140;DHT22;5624;49.388;11.350;2023-04-24T14:07:54;11.70;55.90
11140;DHT22;5624;49.388;11.350;2023-04-24T14:10:20;11.60;57.90
11140;DHT22;5624;49.388;11.350;2023-04-24T14:12:46;11.70;56.70
11140;DHT22;5624;49.388;11.350;2023-04-24T14:15:12;11.70;57.40
11140;DHT22;5624;49.388;11.350;2023-04-24T14:17:38;11.60;56.00
11140;DHT22;5624;49.388;11.350;2023-04-24T14:20:05;11.50;56.90
11140;DHT22;5624;49.388;11.350;2023-04-24T14:22:31;11.40;56.70
11140;DHT22;5624;49.388;11.350;2023-04-24T14:24:56;11.30;56.80
11140;DHT22;5624;49.388;11.350;2023-04-24T14:27:23;11.40;57.20
11140;DHT22;5624;49.388;11.350;2023-04-24T14:29:49;11.40;58.00
11140;DHT22;5624;49.388;11.350;2023-04-24T14:32:15;11.60;58.00
11140;DHT22;5624;49.388;11.350;2023-04-24T14:34:41;11.80;58.10
11140;DHT22;5624;49.388;11.350;2023-04-24T14:37:07;11.80;57.50
11140;DHT22;5624;49.388;11.350;2023-04-24T14:39:32;12.30;58.40
11140;DHT22;5624;49.388;11.350;2023-04-24T14:41:58;12.70;56.20
11140;DHT22;5624;49.388;11.350;2023-04-24T14:44:24;12.60;53.90
11140;DHT22;5624;49.388;11.350;2023-04-24T14:46:50;12.50;54.50
11140;DHT22;5624;49.388;11.350;2023-04-24T14:49:15;12.70;55.10
11140;DHT22;5624;49.388;11.350;2023-04-24T14:51:41;12.80;53.30
11140;DHT22;5624;49.388;11.350;2023-04-24T14:54:07;12.80;53.40
11140;DHT22;5624;49.388;11.350;2023-04-24T14:56:33;12.50;53.80
11140;DHT22;5624;49.388;11.350;2023-04-24T14:58:59;12.20;54.20
11140;DHT22;5624;49.388;11.350;2023-04-24T15:01:24;12.10;55.50
11140;DHT22;5624;49.388;11.350;2023-04-24T15:03:50;12.00;55.80
11140;DHT22;5624;49.388;11.350;2023-04-24T15:06:16;11.80;56.30
11140;DHT22;5624;49.388;11.350;2023-04-24T15:08:41;11.70;57.20
11140;DHT22;5624;49.388;11.350;2023-04-24T15:11:09;11.70;58.30
11140;DHT22;5624;49.388;11.350;2023-04-24T15:13:35;11.70;58.50
11140;DHT22;5624;49.388;11.350;2023-04-24T15:16:01;11.50;58.20
11140;DHT22;5624;49.388;11.350;2023-04-24T15:18:27;11.20;56.60
11140;DHT22;5624;49.388;11.350;2023-04-24T15:20:55;11.00;56.60
11140;DHT22;5624;49.388;11.350;2023-04-24T15:23:20;10.80;55.90
11140;DHT22;5624;49.388;11.350;2023-04-24T15:25:46;10.70;57.90
11140;DHT22;5624;49.388;11.350;2023-04-24T15:28:12;10.60;58.10
11140;DHT22;5624;49.388;11.350;2023-04-24T15:30:38;10.60;58.30
11140;DHT22;5624;49.388;11.350;2023-04-24T15:33:03;10.60;59.60
11140;DHT22;5624;49.388;11.350;2023-04-24T15:35:29;10.60;59.40
11140;DHT22;5624;49.388;11.350;2023-04-24T15:37:55;10.80;60.10
11140;DHT22;5624;49.388;11.350;2023-04-24T15:40:20;11.00;60.90
11140;DHT22;5624;49.388;11.350;2023-04-24T15:42:46;11.20;60.90
11140;DHT22;5624;49.388;11.350;2023-04-24T15:45:12;11.30;60.70
11140;DHT22;5624;49.388;11.350;2023-04-24T15:47:38;11.30;60.50
11140;DHT22;5624;49.388;11.350;2023-04-24T15:50:04;11.30;60.60
11140;DHT22;5624;49.388;11.350;2023-04-24T15:52:30;11.40;60.90